Terminal Aerodrome Forecast
Issued by NWS Cleveland, OH

Home | Current Version | Previous Version | Text Only | Print | Product List | Glossary On
Versions: 1 2 3 4 5 6 7 8 9 10 11 12 13 14 15 16 17
000
FTUS41 KCLE 041700
TAFCAK
TAF
KCAK 041730Z 0418/0518 22016G26KT P6SM SCT045 BKN250
     FM042000 23015G25KT P6SM BKN060
     FM042200 23012G18KT P6SM -SHRA OVC045
      TEMPO 0422/0424 5SM -SHRA BR OVC045
     FM050000 25008KT P6SM SCT045 BKN060
     FM050400 23006KT P6SM -SHRA SCT025 OVC045
      TEMPO 0504/0508 5SM -SHRA BR BKN025
     FM050800 36005KT 5SM -SHRA BR OVC015
     FM051200 01004KT 3SM -SHRA BR OVC008=

USA.gov is the U.S. government's official web portal to all federal, state and local government web resources and services.